sensor_id;sensor_type;location;lat;lon;timestamp;temperature;humidity
18894;DHT22;9579;49.488;8.226;2024-02-04T00:00:14;11.60;99.90
18894;DHT22;9579;49.488;8.226;2024-02-04T00:03:01;11.50;99.90
18894;DHT22;9579;49.488;8.226;2024-02-04T00:05:48;11.60;99.90
18894;DHT22;9579;49.488;8.226;2024-02-04T00:08:37;11.60;99.90
18894;DHT22;9579;49.488;8.226;2024-02-04T00:11:25;11.70;99.90
18894;DHT22;9579;49.488;8.226;2024-02-04T00:14:12;11.60;99.90
18894;DHT22;9579;49.488;8.226;2024-02-04T00:16:59;11.70;99.90
18894;DHT22;9579;49.488;8.226;2024-02-04T00:19:46;11.80;99.90
18894;DHT22;9579;49.488;8.226;2024-02-04T00:22:33;11.90;99.90
18894;DHT22;9579;49.488;8.226;2024-02-04T00:25:21;11.80;99.90
18894;DHT22;9579;49.488;8.226;2024-02-04T00:28:09;11.80;99.90
18894;DHT22;9579;49.488;8.226;2024-02-04T00:30:57;11.80;99.90
18894;DHT22;9579;49.488;8.226;2024-02-04T00:33:44;11.80;99.90
18894;DHT22;9579;49.488;8.226;2024-02-04T00:36:31;11.80;99.90
18894;DHT22;9579;49.488;8.226;2024-02-04T00:39:18;11.80;99.90
18894;DHT22;9579;49.488;8.226;2024-02-04T00:42:07;11.80;99.90
18894;DHT22;9579;49.488;8.226;2024-02-04T00:44:54;11.80;99.90
18894;DHT22;9579;49.488;8.226;2024-02-04T00:47:41;11.80;99.90
18894;DHT22;9579;49.488;8.226;2024-02-04T00:50:28;11.80;99.90
18894;DHT22;9579;49.488;8.226;2024-02-04T00:53:15;11.90;99.90
18894;DHT22;9579;49.488;8.226;2024-02-04T00:56:02;11.80;99.90
18894;DHT22;9579;49.488;8.226;2024-02-04T00:58:51;11.70;99.90
18894;DHT22;9579;49.488;8.226;2024-02-04T01:01:38;11.60;99.90
18894;DHT22;9579;49.488;8.226;2024-02-04T01:04:25;11.60;99.90
18894;DHT22;9579;49.488;8.226;2024-02-04T01:07:12;11.50;99.90
18894;DHT22;9579;49.488;8.226;2024-02-04T01:09:59;11.50;99.90
18894;DHT22;9579;49.488;8.226;2024-02-04T01:12:46;11.50;99.90
18894;DHT22;9579;49.488;8.226;2024-02-04T01:15:34;11.40;99.90
18894;DHT22;9579;49.488;8.226;2024-02-04T01:18:21;11.40;99.90
18894;DHT22;9579;49.488;8.226;2024-02-04T01:21:08;11.40;99.90
18894;DHT22;9579;49.488;8.226;2024-02-04T01:23:55;11.40;99.90
18894;DHT22;9579;49.488;8.226;2024-02-04T01:26:42;11.60;99.90
18894;DHT22;9579;49.488;8.226;2024-02-04T01:29:29;11.60;99.90
18894;DHT22;9579;49.488;8.226;2024-02-04T01:32:18;11.50;99.90
18894;DHT22;9579;49.488;8.226;2024-02-04T01:35:06;11.60;99.90
18894;DHT22;9579;49.488;8.226;2024-02-04T01:37:53;11.60;99.90
18894;DHT22;9579;49.488;8.226;2024-02-04T01:40:40;11.50;99.90
18894;DHT22;9579;49.488;8.226;2024-02-04T01:43:27;11.60;99.90
18894;DHT22;9579;49.488;8.226;2024-02-04T01:46:15;11.60;99.90
18894;DHT22;9579;49.488;8.226;2024-02-04T01:49:03;11.50;99.90
18894;DHT22;9579;49.488;8.226;2024-02-04T01:51:51;11.40;99.90
18894;DHT22;9579;49.488;8.226;2024-02-04T01:54:40;11.40;99.90
18894;DHT22;9579;49.488;8.226;2024-02-04T01:57:28;11.40;99.90
18894;DHT22;9579;49.488;8.226;2024-02-04T02:00:16;11.50;99.90
18894;DHT22;9579;49.488;8.226;2024-02-04T02:03:06;11.50;99.90
18894;DHT22;9579;49.488;8.226;2024-02-04T02:05:55;11.50;99.90
18894;DHT22;9579;49.488;8.226;2024-02-04T02:08:42;11.50;99.90
18894;DHT22;9579;49.488;8.226;2024-02-04T02:11:40;11.40;99.90
18894;DHT22;9579;49.488;8.226;2024-02-04T02:14:32;11.40;99.90
18894;DHT22;9579;49.488;8.226;2024-02-04T02:17:29;11.50;99.90
18894;DHT22;9579;49.488;8.226;2024-02-04T02:20:21;11.50;99.90
18894;DHT22;9579;49.488;8.226;2024-02-04T02:23:14;11.50;99.90
18894;DHT22;9579;49.488;8.226;2024-02-04T02:26:04;11.50;99.90
18894;DHT22;9579;49.488;8.226;2024-02-04T02:28:52;11.50;99.90
18894;DHT22;9579;49.488;8.226;2024-02-04T02:31:40;11.40;99.90
18894;DHT22;9579;49.488;8.226;2024-02-04T02:34:27;11.40;99.90
18894;DHT22;9579;49.488;8.226;2024-02-04T02:37:24;11.60;99.90
18894;DHT22;9579;49.488;8.226;2024-02-04T02:40:19;11.60;99.90
18894;DHT22;9579;49.488;8.226;2024-02-04T02:43:10;11.60;99.90
18894;DHT22;9579;49.488;8.226;2024-02-04T02:45:58;11.50;99.90
18894;DHT22;9579;49.488;8.226;2024-02-04T02:48:45;11.50;99.90
18894;DHT22;9579;49.488;8.226;2024-02-04T02:51:32;11.60;99.90
18894;DHT22;9579;49.488;8.226;2024-02-04T02:54:19;11.50;99.90
18894;DHT22;9579;49.488;8.226;2024-02-04T02:57:06;11.60;99.90
18894;DHT22;9579;49.488;8.226;2024-02-04T02:59:54;11.50;99.90
18894;DHT22;9579;49.488;8.226;2024-02-04T03:02:41;11.40;99.90
18894;DHT22;9579;49.488;8.226;2024-02-04T03:05:28;11.40;99.90
18894;DHT22;9579;49.488;8.226;2024-02-04T03:08:15;11.30;99.90
18894;DHT22;9579;49.488;8.226;2024-02-04T03:11:02;11.30;99.90
18894;DHT22;9579;49.488;8.226;2024-02-04T03:13:49;11.30;99.90
18894;DHT22;9579;49.488;8.226;2024-02-04T03:16:38;11.30;99.90
18894;DHT22;9579;49.488;8.226;2024-02-04T03:19:25;11.30;99.90
18894;DHT22;9579;49.488;8.226;2024-02-04T03:22:12;11.30;99.90
18894;DHT22;9579;49.488;8.226;2024-02-04T03:24:59;11.30;99.90
18894;DHT22;9579;49.488;8.226;2024-02-04T03:27:46;11.30;99.90
18894;DHT22;9579;49.488;8.226;2024-02-04T03:30:33;11.30;99.90
18894;DHT22;9579;49.488;8.226;2024-02-04T03:33:21;11.30;99.90
18894;DHT22;9579;49.488;8.226;2024-02-04T03:36:08;11.30;99.90
18894;DHT22;9579;49.488;8.226;2024-02-04T03:38:55;11.40;99.90
18894;DHT22;9579;49.488;8.226;2024-02-04T03:41:42;11.40;99.90
18894;DHT22;9579;49.488;8.226;2024-02-04T03:44:29;11.40;99.90
18894;DHT22;9579;49.488;8.226;2024-02-04T03:47:16;11.30;99.90
18894;DHT22;9579;49.488;8.226;2024-02-04T03:50:05;11.30;99.90
18894;DHT22;9579;49.488;8.226;2024-02-04T03:52:52;11.40;99.90
18894;DHT22;9579;49.488;8.226;2024-02-04T03:55:39;11.30;99.90
18894;DHT22;9579;49.488;8.226;2024-02-04T03:58:26;11.30;99.90
18894;DHT22;9579;49.488;8.226;2024-02-04T04:01:16;11.30;99.90
18894;DHT22;9579;49.488;8.226;2024-02-04T04:04:03;11.30;99.90
18894;DHT22;9579;49.488;8.226;2024-02-04T04:06:51;11.30;99.90
18894;DHT22;9579;49.488;8.226;2024-02-04T04:09:38;11.30;99.90
18894;DHT22;9579;49.488;8.226;2024-02-04T04:12:25;11.20;99.90
18894;DHT22;9579;49.488;8.226;2024-02-04T04:15:12;11.20;99.90
18894;DHT22;9579;49.488;8.226;2024-02-04T04:17:59;11.20;99.90
18894;DHT22;9579;49.488;8.226;2024-02-04T04:20:46;11.30;99.90
18894;DHT22;9579;49.488;8.226;2024-02-04T04:23:35;11.30;99.90
18894;DHT22;9579;49.488;8.226;2024-02-04T04:26:22;11.30;99.90
18894;DHT22;9579;49.488;8.226;2024-02-04T04:29:09;11.30;99.90
18894;DHT22;9579;49.488;8.226;2024-02-04T04:31:56;11.30;99.90
18894;DHT22;9579;49.488;8.226;2024-02-04T04:34:42;11.30;99.90
18894;DHT22;9579;49.488;8.226;2024-02-04T04:37:29;11.30;99.90
18894;DHT22;9579;49.488;8.226;2024-02-04T04:40:18;11.30;99.90
18894;DHT22;9579;49.488;8.226;2024-02-04T04:43:05;11.20;99.90
18894;DHT22;9579;49.488;8.226;2024-02-04T04:45:52;11.10;99.90
18894;DHT22;9579;49.488;8.226;2024-02-04T04:48:39;11.20;99.90
18894;DHT22;9579;49.488;8.226;2024-02-04T04:51:26;11.20;99.90
18894;DHT22;9579;49.488;8.226;2024-02-04T04:54:13;11.20;99.90
18894;DHT22;9579;49.488;8.226;2024-02-04T04:57:02;11.20;99.90
18894;DHT22;9579;49.488;8.226;2024-02-04T04:59:49;11.10;99.90
18894;DHT22;9579;49.488;8.226;2024-02-04T05:02:36;11.20;99.90
18894;DHT22;9579;49.488;8.226;2024-02-04T05:05:23;11.20;99.90
18894;DHT22;9579;49.488;8.226;2024-02-04T05:08:11;11.20;99.90
18894;DHT22;9579;49.488;8.226;2024-02-04T05:10:58;11.20;99.90
18894;DHT22;9579;49.488;8.226;2024-02-04T05:13:46;11.20;99.90
18894;DHT22;9579;49.488;8.226;2024-02-04T05:16:33;11.10;99.90
18894;DHT22;9579;49.488;8.226;2024-02-04T05:19:21;11.20;99.90
18894;DHT22;9579;49.488;8.226;2024-02-04T05:22:08;11.10;99.90
18894;DHT22;9579;49.488;8.226;2024-02-04T05:24:56;11.20;99.90
18894;DHT22;9579;49.488;8.226;2024-02-04T05:27:43;11.10;99.90
18894;DHT22;9579;49.488;8.226;2024-02-04T05:30:31;11.10;99.90
18894;DHT22;9579;49.488;8.226;2024-02-04T05:33:18;11.10;99.90
18894;DHT22;9579;49.488;8.226;2024-02-04T05:36:05;11.10;99.90
18894;DHT22;9579;49.488;8.226;2024-02-04T05:38:53;11.10;99.90
18894;DHT22;9579;49.488;8.226;2024-02-04T05:41:40;11.10;99.90
18894;DHT22;9579;49.488;8.226;2024-02-04T05:44:27;11.00;99.90
18894;DHT22;9579;49.488;8.226;2024-02-04T05:47:15;11.10;99.90
18894;DHT22;9579;49.488;8.226;2024-02-04T05:50:03;11.00;99.90
18894;DHT22;9579;49.488;8.226;2024-02-04T05:52:50;11.00;99.90
18894;DHT22;9579;49.488;8.226;2024-02-04T05:55:37;11.00;99.90
18894;DHT22;9579;49.488;8.226;2024-02-04T05:58:24;11.20;99.90
18894;DHT22;9579;49.488;8.226;2024-02-04T06:01:11;11.20;99.90
18894;DHT22;9579;49.488;8.226;2024-02-04T06:03:59;11.20;99.90
18894;DHT22;9579;49.488;8.226;2024-02-04T06:06:46;11.20;99.90
18894;DHT22;9579;49.488;8.226;2024-02-04T06:09:34;11.20;99.90
18894;DHT22;9579;49.488;8.226;2024-02-04T06:12:21;11.30;99.90
18894;DHT22;9579;49.488;8.226;2024-02-04T06:15:12;11.20;99.90
18894;DHT22;9579;49.488;8.226;2024-02-04T06:17:59;11.20;99.90
18894;DHT22;9579;49.488;8.226;2024-02-04T06:20:48;11.20;99.90
18894;DHT22;9579;49.488;8.226;2024-02-04T06:23:35;11.20;99.90
18894;DHT22;9579;49.488;8.226;2024-02-04T06:26:22;11.20;99.90
18894;DHT22;9579;49.488;8.226;2024-02-04T06:29:10;11.20;99.90
18894;DHT22;9579;49.488;8.226;2024-02-04T06:31:57;11.20;99.90
18894;DHT22;9579;49.488;8.226;2024-02-04T06:34:44;11.30;99.90
18894;DHT22;9579;49.488;8.226;2024-02-04T06:37:32;11.20;99.90
18894;DHT22;9579;49.488;8.226;2024-02-04T06:40:19;11.20;99.90
18894;DHT22;9579;49.488;8.226;2024-02-04T06:43:06;11.10;99.90
18894;DHT22;9579;49.488;8.226;2024-02-04T06:45:53;11.00;99.90
18894;DHT22;9579;49.488;8.226;2024-02-04T06:48:40;11.10;99.90
18894;DHT22;9579;49.488;8.226;2024-02-04T06:51:27;11.20;99.90
18894;DHT22;9579;49.488;8.226;2024-02-04T06:54:15;11.20;99.90
18894;DHT22;9579;49.488;8.226;2024-02-04T06:57:03;11.10;99.90
18894;DHT22;9579;49.488;8.226;2024-02-04T06:59:50;11.20;99.90
18894;DHT22;9579;49.488;8.226;2024-02-04T07:02:37;11.30;99.90
18894;DHT22;9579;49.488;8.226;2024-02-04T07:05:24;11.20;99.90
18894;DHT22;9579;49.488;8.226;2024-02-04T07:08:11;11.20;99.90
18894;DHT22;9579;49.488;8.226;2024-02-04T07:11:00;11.30;99.90
18894;DHT22;9579;49.488;8.226;2024-02-04T07:13:47;11.30;99.90
18894;DHT22;9579;49.488;8.226;2024-02-04T07:16:34;11.30;99.90
18894;DHT22;9579;49.488;8.226;2024-02-04T07:19:21;11.30;99.90
18894;DHT22;9579;49.488;8.226;2024-02-04T07:22:08;11.30;99.90
18894;DHT22;9579;49.488;8.226;2024-02-04T07:24:55;11.30;99.90
18894;DHT22;9579;49.488;8.226;2024-02-04T07:27:43;11.30;99.90
18894;DHT22;9579;49.488;8.226;2024-02-04T07:30:30;11.40;99.90
18894;DHT22;9579;49.488;8.226;2024-02-04T07:33:17;11.40;99.90
18894;DHT22;9579;49.488;8.226;2024-02-04T07:36:05;11.40;99.90
18894;DHT22;9579;49.488;8.226;2024-02-04T07:38:52;11.30;99.90
18894;DHT22;9579;49.488;8.226;2024-02-04T07:41:39;11.40;99.90
18894;DHT22;9579;49.488;8.226;2024-02-04T07:44:28;11.40;99.90
18894;DHT22;9579;49.488;8.226;2024-02-04T07:47:15;11.50;99.90
18894;DHT22;9579;49.488;8.226;2024-02-04T07:50:03;11.50;99.90
18894;DHT22;9579;49.488;8.226;2024-02-04T07:52:51;11.40;99.90
18894;DHT22;9579;49.488;8.226;2024-02-04T07:55:38;11.50;99.90
18894;DHT22;9579;49.488;8.226;2024-02-04T07:58:25;11.50;99.90
18894;DHT22;9579;49.488;8.226;2024-02-04T08:01:14;11.50;99.90
18894;DHT22;9579;49.488;8.226;2024-02-04T08:04:02;11.60;99.90
18894;DHT22;9579;49.488;8.226;2024-02-04T08:06:49;11.50;99.90
18894;DHT22;9579;49.488;8.226;2024-02-04T08:09:37;11.60;99.90
18894;DHT22;9579;49.488;8.226;2024-02-04T08:12:24;11.70;99.90
18894;DHT22;9579;49.488;8.226;2024-02-04T08:15:12;11.80;99.90
18894;DHT22;9579;49.488;8.226;2024-02-04T08:18:00;11.80;99.90
18894;DHT22;9579;49.488;8.226;2024-02-04T08:20:47;11.80;99.90
18894;DHT22;9579;49.488;8.226;2024-02-04T08:23:34;12.00;99.90
18894;DHT22;9579;49.488;8.226;2024-02-04T08:26:21;12.10;99.90
18894;DHT22;9579;49.488;8.226;2024-02-04T08:29:08;12.20;99.90
18894;DHT22;9579;49.488;8.226;2024-02-04T08:31:55;12.20;99.90
18894;DHT22;9579;49.488;8.226;2024-02-04T08:34:44;12.10;99.90
18894;DHT22;9579;49.488;8.226;2024-02-04T08:37:31;12.10;99.90
18894;DHT22;9579;49.488;8.226;2024-02-04T08:40:19;12.20;99.90
18894;DHT22;9579;49.488;8.226;2024-02-04T08:43:06;12.10;99.90
18894;DHT22;9579;49.488;8.226;2024-02-04T08:45:53;12.10;99.90
18894;DHT22;9579;49.488;8.226;2024-02-04T08:48:40;12.10;99.90
18894;DHT22;9579;49.488;8.226;2024-02-04T08:51:29;12.10;99.90
18894;DHT22;9579;49.488;8.226;2024-02-04T08:54:16;12.00;99.90
18894;DHT22;9579;49.488;8.226;2024-02-04T08:57:04;12.00;99.90
18894;DHT22;9579;49.488;8.226;2024-02-04T08:59:51;12.10;99.90
18894;DHT22;9579;49.488;8.226;2024-02-04T09:02:39;12.20;99.90
18894;DHT22;9579;49.488;8.226;2024-02-04T09:05:26;12.20;99.90
18894;DHT22;9579;49.488;8.226;2024-02-04T09:08:14;12.20;99.90
18894;DHT22;9579;49.488;8.226;2024-02-04T09:11:01;12.20;99.90
18894;DHT22;9579;49.488;8.226;2024-02-04T09:13:48;12.20;99.90
18894;DHT22;9579;49.488;8.226;2024-02-04T09:16:37;12.30;99.90
18894;DHT22;9579;49.488;8.226;2024-02-04T09:19:24;12.20;99.90
18894;DHT22;9579;49.488;8.226;2024-02-04T09:22:11;12.20;99.90
18894;DHT22;9579;49.488;8.226;2024-02-04T09:24:59;12.20;99.90
18894;DHT22;9579;49.488;8.226;2024-02-04T09:27:46;12.10;99.90
18894;DHT22;9579;49.488;8.226;2024-02-04T09:30:33;12.00;99.90
18894;DHT22;9579;49.488;8.226;2024-02-04T09:33:20;12.10;99.90
18894;DHT22;9579;49.488;8.226;2024-02-04T09:36:07;12.10;99.90
18894;DHT22;9579;49.488;8.226;2024-02-04T09:38:54;12.10;99.90
18894;DHT22;9579;49.488;8.226;2024-02-04T09:41:44;12.00;99.90
18894;DHT22;9579;49.488;8.226;2024-02-04T09:44:32;12.00;99.90
18894;DHT22;9579;49.488;8.226;2024-02-04T09:47:21;12.10;99.90
18894;DHT22;9579;49.488;8.226;2024-02-04T09:50:09;12.10;99.90
18894;DHT22;9579;49.488;8.226;2024-02-04T09:52:58;12.10;99.90
18894;DHT22;9579;49.488;8.226;2024-02-04T09:55:47;12.10;99.90
18894;DHT22;9579;49.488;8.226;2024-02-04T09:58:35;12.10;99.90
18894;DHT22;9579;49.488;8.226;2024-02-04T10:01:23;12.10;99.90
18894;DHT22;9579;49.488;8.226;2024-02-04T10:04:10;12.00;99.90
18894;DHT22;9579;49.488;8.226;2024-02-04T10:06:57;12.10;99.90
18894;DHT22;9579;49.488;8.226;2024-02-04T10:09:44;12.20;99.90
18894;DHT22;9579;49.488;8.226;2024-02-04T10:12:31;12.10;99.90
18894;DHT22;9579;49.488;8.226;2024-02-04T10:15:20;12.20;99.90
18894;DHT22;9579;49.488;8.226;2024-02-04T10:18:08;12.10;99.90
18894;DHT22;9579;49.488;8.226;2024-02-04T10:20:55;12.10;99.90
18894;DHT22;9579;49.488;8.226;2024-02-04T10:23:42;12.20;99.90
18894;DHT22;9579;49.488;8.226;2024-02-04T10:26:29;12.30;99.90
18894;DHT22;9579;49.488;8.226;2024-02-04T10:29:19;12.40;99.90
18894;DHT22;9579;49.488;8.226;2024-02-04T10:32:08;12.40;99.90
18894;DHT22;9579;49.488;8.226;2024-02-04T10:34:55;12.40;99.90
18894;DHT22;9579;49.488;8.226;2024-02-04T10:37:44;12.30;99.90
18894;DHT22;9579;49.488;8.226;2024-02-04T10:40:31;12.50;99.90
18894;DHT22;9579;49.488;8.226;2024-02-04T10:43:18;12.50;99.90
18894;DHT22;9579;49.488;8.226;2024-02-04T10:46:09;12.40;99.90
18894;DHT22;9579;49.488;8.226;2024-02-04T10:48:59;12.40;99.90
18894;DHT22;9579;49.488;8.226;2024-02-04T10:51:47;12.40;99.90
18894;DHT22;9579;49.488;8.226;2024-02-04T10:54:36;12.30;99.90
18894;DHT22;9579;49.488;8.226;2024-02-04T10:57:25;12.30;99.90
18894;DHT22;9579;49.488;8.226;2024-02-04T11:00:14;12.40;99.90
18894;DHT22;9579;49.488;8.226;2024-02-04T11:03:04;12.40;99.90
18894;DHT22;9579;49.488;8.226;2024-02-04T11:05:52;12.40;99.90
18894;DHT22;9579;49.488;8.226;2024-02-04T11:08:41;12.50;99.90
18894;DHT22;9579;49.488;8.226;2024-02-04T11:11:28;12.40;99.90
18894;DHT22;9579;49.488;8.226;2024-02-04T11:14:19;12.40;99.90
18894;DHT22;9579;49.488;8.226;2024-02-04T11:20:42;12.40;99.90
18894;DHT22;9579;49.488;8.226;2024-02-04T11:23:42;12.40;99.90
18894;DHT22;9579;49.488;8.226;2024-02-04T11:26:33;12.40;99.90
18894;DHT22;9579;49.488;8.226;2024-02-04T11:29:21;12.20;99.90
18894;DHT22;9579;49.488;8.226;2024-02-04T11:34:55;12.20;99.90
18894;DHT22;9579;49.488;8.226;2024-02-04T11:37:46;13.70;99.90
18894;DHT22;9579;49.488;8.226;2024-02-04T11:40:37;12.70;99.90
18894;DHT22;9579;49.488;8.226;2024-02-04T11:43:25;11.70;99.90
18894;DHT22;9579;49.488;8.226;2024-02-04T11:46:16;12.10;99.90
18894;DHT22;9579;49.488;8.226;2024-02-04T11:49:14;12.10;99.90
18894;DHT22;9579;49.488;8.226;2024-02-04T11:52:01;12.20;99.90
18894;DHT22;9579;49.488;8.226;2024-02-04T11:54:49;11.90;99.90
18894;DHT22;9579;49.488;8.226;2024-02-04T11:57:37;12.40;99.90
18894;DHT22;9579;49.488;8.226;2024-02-04T12:00:25;12.20;99.90
18894;DHT22;9579;49.488;8.226;2024-02-04T12:03:12;12.50;99.90
18894;DHT22;9579;49.488;8.226;2024-02-04T12:06:00;12.40;99.90
18894;DHT22;9579;49.488;8.226;2024-02-04T12:08:48;13.00;99.90
18894;DHT22;9579;49.488;8.226;2024-02-04T12:11:36;12.60;99.90
18894;DHT22;9579;49.488;8.226;2024-02-04T12:14:26;13.00;99.90
18894;DHT22;9579;49.488;8.226;2024-02-04T12:17:15;13.70;99.90
18894;DHT22;9579;49.488;8.226;2024-02-04T12:20:03;13.30;99.90
18894;DHT22;9579;49.488;8.226;2024-02-04T12:22:51;12.50;99.90
18894;DHT22;9579;49.488;8.226;2024-02-04T12:25:38;13.40;99.90
18894;DHT22;9579;49.488;8.226;2024-02-04T12:28:25;12.60;99.90
18894;DHT22;9579;49.488;8.226;2024-02-04T12:31:20;12.60;99.90
18894;DHT22;9579;49.488;8.226;2024-02-04T12:34:08;13.20;99.90
18894;DHT22;9579;49.488;8.226;2024-02-04T12:36:58;13.10;99.90
18894;DHT22;9579;49.488;8.226;2024-02-04T12:39:46;13.60;99.90
18894;DHT22;9579;49.488;8.226;2024-02-04T12:42:33;13.30;99.90
18894;DHT22;9579;49.488;8.226;2024-02-04T12:45:21;12.40;99.90
18894;DHT22;9579;49.488;8.226;2024-02-04T12:48:09;12.70;99.90
18894;DHT22;9579;49.488;8.226;2024-02-04T12:51:01;12.90;99.90
18894;DHT22;9579;49.488;8.226;2024-02-04T12:53:50;12.60;99.90
18894;DHT22;9579;49.488;8.226;2024-02-04T12:56:45;12.60;99.90
18894;DHT22;9579;49.488;8.226;2024-02-04T12:59:35;12.70;99.90
18894;DHT22;9579;49.488;8.226;2024-02-04T13:02:22;12.70;99.90
18894;DHT22;9579;49.488;8.226;2024-02-04T13:05:22;12.90;99.90
18894;DHT22;9579;49.488;8.226;2024-02-04T13:08:13;12.70;99.90
18894;DHT22;9579;49.488;8.226;2024-02-04T13:11:05;12.80;99.90
18894;DHT22;9579;49.488;8.226;2024-02-04T13:13:53;13.40;99.90
18894;DHT22;9579;49.488;8.226;2024-02-04T13:16:45;12.70;99.90
18894;DHT22;9579;49.488;8.226;2024-02-04T13:19:36;13.20;99.90
18894;DHT22;9579;49.488;8.226;2024-02-04T13:22:29;12.80;99.90
18894;DHT22;9579;49.488;8.226;2024-02-04T13:25:21;13.50;99.90
18894;DHT22;9579;49.488;8.226;2024-02-04T13:28:10;11.90;99.90
18894;DHT22;9579;49.488;8.226;2024-02-04T13:30:58;12.50;99.90
18894;DHT22;9579;49.488;8.226;2024-02-04T13:33:52;12.20;99.90
18894;DHT22;9579;49.488;8.226;2024-02-04T13:36:43;13.60;99.90
18894;DHT22;9579;49.488;8.226;2024-02-04T13:39:31;13.30;99.90
18894;DHT22;9579;49.488;8.226;2024-02-04T13:42:18;13.60;99.90
18894;DHT22;9579;49.488;8.226;2024-02-04T13:45:06;14.00;99.90
18894;DHT22;9579;49.488;8.226;2024-02-04T13:47:54;12.60;99.90
18894;DHT22;9579;49.488;8.226;2024-02-04T13:50:42;12.50;99.90
18894;DHT22;9579;49.488;8.226;2024-02-04T13:58:43;12.50;99.90
18894;DHT22;9579;49.488;8.226;2024-02-04T14:01:30;12.30;99.90
18894;DHT22;9579;49.488;8.226;2024-02-04T14:04:18;12.50;99.90
18894;DHT22;9579;49.488;8.226;2024-02-04T14:07:08;12.40;99.90
18894;DHT22;9579;49.488;8.226;2024-02-04T14:09:56;12.50;99.90
18894;DHT22;9579;49.488;8.226;2024-02-04T14:12:46;12.50;99.90
18894;DHT22;9579;49.488;8.226;2024-02-04T14:15:35;11.20;99.90
18894;DHT22;9579;49.488;8.226;2024-02-04T14:18:30;13.30;99.90
18894;DHT22;9579;49.488;8.226;2024-02-04T14:23:54;12.50;99.90
18894;DHT22;9579;49.488;8.226;2024-02-04T14:26:48;12.60;99.90
18894;DHT22;9579;49.488;8.226;2024-02-04T14:29:48;12.50;99.90
18894;DHT22;9579;49.488;8.226;2024-02-04T14:33:04;11.50;99.90
18894;DHT22;9579;49.488;8.226;2024-02-04T14:35:57;12.50;99.90
18894;DHT22;9579;49.488;8.226;2024-02-04T14:38:46;12.50;99.90
18894;DHT22;9579;49.488;8.226;2024-02-04T14:46:43;12.60;99.90
18894;DHT22;9579;49.488;8.226;2024-02-04T14:49:36;12.30;99.90
18894;DHT22;9579;49.488;8.226;2024-02-04T14:52:27;12.30;99.90
18894;DHT22;9579;49.488;8.226;2024-02-04T14:57:50;12.70;99.90
18894;DHT22;9579;49.488;8.226;2024-02-04T15:00:40;12.60;99.90
18894;DHT22;9579;49.488;8.226;2024-02-04T15:03:28;12.10;99.90
18894;DHT22;9579;49.488;8.226;2024-02-04T15:06:17;12.50;99.90
18894;DHT22;9579;49.488;8.226;2024-02-04T15:09:06;12.30;99.90
18894;DHT22;9579;49.488;8.226;2024-02-04T15:11:57;12.40;99.90
18894;DHT22;9579;49.488;8.226;2024-02-04T15:14:45;12.60;99.90
18894;DHT22;9579;49.488;8.226;2024-02-04T15:17:34;13.00;99.90
18894;DHT22;9579;49.488;8.226;2024-02-04T15:20:22;12.30;99.90
18894;DHT22;9579;49.488;8.226;2024-02-04T15:23:11;12.40;99.90
18894;DHT22;9579;49.488;8.226;2024-02-04T15:25:59;12.40;99.90
18894;DHT22;9579;49.488;8.226;2024-02-04T15:28:47;12.40;99.90
18894;DHT22;9579;49.488;8.226;2024-02-04T15:31:35;12.50;99.90
18894;DHT22;9579;49.488;8.226;2024-02-04T15:34:24;12.30;99.90
18894;DHT22;9579;49.488;8.226;2024-02-04T15:37:19;12.30;99.90
18894;DHT22;9579;49.488;8.226;2024-02-04T15:40:15;13.80;99.90
18894;DHT22;9579;49.488;8.226;2024-02-04T15:43:03;12.40;99.90
18894;DHT22;9579;49.488;8.226;2024-02-04T15:45:52;12.40;99.90
18894;DHT22;9579;49.488;8.226;2024-02-04T15:48:47;12.40;99.90
18894;DHT22;9579;49.488;8.226;2024-02-04T15:51:38;14.00;99.90
18894;DHT22;9579;49.488;8.226;2024-02-04T15:54:29;12.60;99.90
18894;DHT22;9579;49.488;8.226;2024-02-04T15:57:20;12.40;99.90
18894;DHT22;9579;49.488;8.226;2024-02-04T16:00:09;13.70;99.90
18894;DHT22;9579;49.488;8.226;2024-02-04T16:03:04;12.50;99.90
18894;DHT22;9579;49.488;8.226;2024-02-04T16:08:32;12.50;99.90
18894;DHT22;9579;49.488;8.226;2024-02-04T16:17:02;12.50;99.90
18894;DHT22;9579;49.488;8.226;2024-02-04T16:19:51;12.60;99.90
18894;DHT22;9579;49.488;8.226;2024-02-04T16:25:18;12.40;99.90
18894;DHT22;9579;49.488;8.226;2024-02-04T16:28:23;13.40;99.90
18894;DHT22;9579;49.488;8.226;2024-02-04T16:33:56;12.30;99.90
18894;DHT22;9579;49.488;8.226;2024-02-04T16:36:49;12.20;99.90
18894;DHT22;9579;49.488;8.226;2024-02-04T16:39:37;12.70;99.90
18894;DHT22;9579;49.488;8.226;2024-02-04T16:42:27;14.20;99.90
18894;DHT22;9579;49.488;8.226;2024-02-04T16:45:25;12.50;99.90
18894;DHT22;9579;49.488;8.226;2024-02-04T16:48:16;12.40;99.90
18894;DHT22;9579;49.488;8.226;2024-02-04T16:51:08;13.80;99.90
18894;DHT22;9579;49.488;8.226;2024-02-04T16:53:56;13.50;99.90
18894;DHT22;9579;49.488;8.226;2024-02-04T16:56:45;11.80;99.90
18894;DHT22;9579;49.488;8.226;2024-02-04T16:59:35;12.10;99.90
18894;DHT22;9579;49.488;8.226;2024-02-04T17:02:30;11.80;99.90
18894;DHT22;9579;49.488;8.226;2024-02-04T17:05:19;12.50;99.90
18894;DHT22;9579;49.488;8.226;2024-02-04T17:08:09;11.10;99.90
18894;DHT22;9579;49.488;8.226;2024-02-04T17:11:00;12.70;99.90
18894;DHT22;9579;49.488;8.226;2024-02-04T17:14:03;11.30;99.90
18894;DHT22;9579;49.488;8.226;2024-02-04T17:17:13;11.20;99.90
18894;DHT22;9579;49.488;8.226;2024-02-04T17:23:03;12.30;99.90
18894;DHT22;9579;49.488;8.226;2024-02-04T17:42:28;11.80;99.90
18894;DHT22;9579;49.488;8.226;2024-02-04T17:45:02;11.60;99.90
18894;DHT22;9579;49.488;8.226;2024-02-04T17:47:53;12.10;99.90
18894;DHT22;9579;49.488;8.226;2024-02-04T17:53:18;12.20;99.90
18894;DHT22;9579;49.488;8.226;2024-02-04T17:56:16;12.10;99.90
18894;DHT22;9579;49.488;8.226;2024-02-04T18:12:03;12.00;99.90
18894;DHT22;9579;49.488;8.226;2024-02-04T18:17:30;11.90;99.90
18894;DHT22;9579;49.488;8.226;2024-02-04T18:23:11;11.80;99.90
18894;DHT22;9579;49.488;8.226;2024-02-04T18:28:38;11.70;99.90
18894;DHT22;9579;49.488;8.226;2024-02-04T18:31:35;11.60;99.90
18894;DHT22;9579;49.488;8.226;2024-02-04T18:37:03;11.80;99.90
18894;DHT22;9579;49.488;8.226;2024-02-04T18:39:51;11.70;99.90
18894;DHT22;9579;49.488;8.226;2024-02-04T18:42:39;12.70;99.90
18894;DHT22;9579;49.488;8.226;2024-02-04T18:45:27;11.60;99.90
18894;DHT22;9579;49.488;8.226;2024-02-04T18:48:14;11.70;99.90
18894;DHT22;9579;49.488;8.226;2024-02-04T18:51:02;11.70;99.90
18894;DHT22;9579;49.488;8.226;2024-02-04T18:53:49;11.50;99.90
18894;DHT22;9579;49.488;8.226;2024-02-04T18:56:42;12.00;99.90
18894;DHT22;9579;49.488;8.226;2024-02-04T18:59:29;12.20;99.90
18894;DHT22;9579;49.488;8.226;2024-02-04T19:02:18;12.90;99.90
18894;DHT22;9579;49.488;8.226;2024-02-04T19:05:07;9.70;99.90
18894;DHT22;9579;49.488;8.226;2024-02-04T19:07:55;11.30;99.90
18894;DHT22;9579;49.488;8.226;2024-02-04T19:10:42;11.30;99.90
18894;DHT22;9579;49.488;8.226;2024-02-04T19:13:29;11.20;99.90
18894;DHT22;9579;49.488;8.226;2024-02-04T19:16:19;12.40;99.90
18894;DHT22;9579;49.488;8.226;2024-02-04T19:19:08;12.00;99.90
18894;DHT22;9579;49.488;8.226;2024-02-04T19:21:56;11.80;99.90